sensor_id;sensor_type;location;lat;lon;timestamp;P1;durP1;ratioP1;P2;durP2;ratioP2
18214;SDS011;9233;51.312;6.512;2022-08-01T00:02:04;3.53;;;2.20;;
18214;SDS011;9233;51.312;6.512;2022-08-01T00:04:51;2.80;;;1.90;;
18214;SDS011;9233;51.312;6.512;2022-08-01T00:07:39;3.27;;;2.00;;
18214;SDS011;9233;51.312;6.512;2022-08-01T00:10:28;4.00;;;2.10;;
18214;SDS011;9233;51.312;6.512;2022-08-01T00:13:14;3.27;;;1.90;;
18214;SDS011;9233;51.312;6.512;2022-08-01T00:16:01;3.20;;;1.93;;
18214;SDS011;9233;51.312;6.512;2022-08-01T00:18:48;2.60;;;1.80;;
18214;SDS011;9233;51.312;6.512;2022-08-01T00:21:34;3.37;;;2.00;;
18214;SDS011;9233;51.312;6.512;2022-08-01T00:24:21;4.43;;;2.00;;
18214;SDS011;9233;51.312;6.512;2022-08-01T00:27:09;2.07;;;1.83;;
18214;SDS011;9233;51.312;6.512;2022-08-01T00:29:55;2.70;;;2.20;;
18214;SDS011;9233;51.312;6.512;2022-08-01T00:32:42;3.90;;;1.80;;
18214;SDS011;9233;51.312;6.512;2022-08-01T00:35:28;3.67;;;2.30;;
18214;SDS011;9233;51.312;6.512;2022-08-01T00:38:15;2.60;;;2.20;;
18214;SDS011;9233;51.312;6.512;2022-08-01T00:41:02;3.10;;;2.17;;
18214;SDS011;9233;51.312;6.512;2022-08-01T00:43:50;2.60;;;2.17;;
18214;SDS011;9233;51.312;6.512;2022-08-01T00:46:36;3.30;;;2.17;;
18214;SDS011;9233;51.312;6.512;2022-08-01T00:49:23;3.23;;;1.97;;
18214;SDS011;9233;51.312;6.512;2022-08-01T00:52:09;6.13;;;2.23;;
18214;SDS011;9233;51.312;6.512;2022-08-01T00:54:56;4.17;;;2.30;;
18214;SDS011;9233;51.312;6.512;2022-08-01T00:57:43;2.73;;;2.10;;
18214;SDS011;9233;51.312;6.512;2022-08-01T01:00:31;3.10;;;1.97;;
18214;SDS011;9233;51.312;6.512;2022-08-01T01:03:18;5.30;;;2.23;;
18214;SDS011;9233;51.312;6.512;2022-08-01T01:06:07;3.43;;;1.87;;
18214;SDS011;9233;51.312;6.512;2022-08-01T01:09:02;2.93;;;1.90;;
18214;SDS011;9233;51.312;6.512;2022-08-01T01:12:01;3.23;;;1.90;;
18214;SDS011;9233;51.312;6.512;2022-08-01T01:14:51;3.17;;;2.23;;
18214;SDS011;9233;51.312;6.512;2022-08-01T01:17:44;2.80;;;2.00;;
18214;SDS011;9233;51.312;6.512;2022-08-01T01:20:33;2.93;;;2.20;;
18214;SDS011;9233;51.312;6.512;2022-08-01T01:23:29;4.03;;;2.07;;
18214;SDS011;9233;51.312;6.512;2022-08-01T01:26:29;3.73;;;2.27;;
18214;SDS011;9233;51.312;6.512;2022-08-01T01:29:25;4.03;;;2.00;;
18214;SDS011;9233;51.312;6.512;2022-08-01T01:32:14;3.87;;;2.17;;
18214;SDS011;9233;51.312;6.512;2022-08-01T01:35:04;4.90;;;2.10;;
18214;SDS011;9233;51.312;6.512;2022-08-01T01:37:54;5.23;;;1.80;;
18214;SDS011;9233;51.312;6.512;2022-08-01T01:40:45;5.13;;;2.40;;
18214;SDS011;9233;51.312;6.512;2022-08-01T01:43:32;3.27;;;2.03;;
18214;SDS011;9233;51.312;6.512;2022-08-01T01:46:22;4.63;;;2.57;;
18214;SDS011;9233;51.312;6.512;2022-08-01T01:49:12;3.40;;;2.43;;
18214;SDS011;9233;51.312;6.512;2022-08-01T01:51:59;4.43;;;2.30;;
18214;SDS011;9233;51.312;6.512;2022-08-01T01:54:47;4.17;;;2.90;;
18214;SDS011;9233;51.312;6.512;2022-08-01T01:57:35;3.73;;;2.50;;
18214;SDS011;9233;51.312;6.512;2022-08-01T02:00:24;3.63;;;2.90;;
18214;SDS011;9233;51.312;6.512;2022-08-01T02:03:12;4.97;;;3.20;;
18214;SDS011;9233;51.312;6.512;2022-08-01T02:05:59;5.27;;;3.03;;
18214;SDS011;9233;51.312;6.512;2022-08-01T02:08:47;4.47;;;3.03;;
18214;SDS011;9233;51.312;6.512;2022-08-01T02:11:34;5.73;;;3.93;;
18214;SDS011;9233;51.312;6.512;2022-08-01T02:14:21;6.70;;;4.10;;
18214;SDS011;9233;51.312;6.512;2022-08-01T02:17:08;6.70;;;3.53;;
18214;SDS011;9233;51.312;6.512;2022-08-01T02:19:58;9.80;;;4.33;;
18214;SDS011;9233;51.312;6.512;2022-08-01T02:22:46;6.43;;;4.13;;
18214;SDS011;9233;51.312;6.512;2022-08-01T02:25:35;6.83;;;3.90;;
18214;SDS011;9233;51.312;6.512;2022-08-01T02:28:25;11.13;;;4.43;;
18214;SDS011;9233;51.312;6.512;2022-08-01T02:31:16;7.40;;;4.10;;
18214;SDS011;9233;51.312;6.512;2022-08-01T02:34:04;8.60;;;4.43;;
18214;SDS011;9233;51.312;6.512;2022-08-01T02:36:54;8.60;;;4.27;;
18214;SDS011;9233;51.312;6.512;2022-08-01T02:39:41;6.67;;;4.10;;
18214;SDS011;9233;51.312;6.512;2022-08-01T02:42:28;7.37;;;4.17;;
18214;SDS011;9233;51.312;6.512;2022-08-01T02:45:16;8.53;;;4.10;;
18214;SDS011;9233;51.312;6.512;2022-08-01T02:48:06;7.30;;;4.60;;
18214;SDS011;9233;51.312;6.512;2022-08-01T02:50:57;7.60;;;4.30;;
18214;SDS011;9233;51.312;6.512;2022-08-01T02:53:46;8.10;;;4.17;;
18214;SDS011;9233;51.312;6.512;2022-08-01T02:56:33;11.00;;;4.70;;
18214;SDS011;9233;51.312;6.512;2022-08-01T02:59:23;7.83;;;4.40;;
18214;SDS011;9233;51.312;6.512;2022-08-01T03:02:10;7.70;;;4.23;;
18214;SDS011;9233;51.312;6.512;2022-08-01T03:04:58;7.73;;;4.70;;
18214;SDS011;9233;51.312;6.512;2022-08-01T03:07:45;11.00;;;4.03;;
18214;SDS011;9233;51.312;6.512;2022-08-01T03:10:34;8.57;;;4.37;;
18214;SDS011;9233;51.312;6.512;2022-08-01T03:13:22;10.43;;;4.87;;
18214;SDS011;9233;51.312;6.512;2022-08-01T03:16:10;6.57;;;3.97;;
18214;SDS011;9233;51.312;6.512;2022-08-01T03:18:57;7.37;;;4.23;;
18214;SDS011;9233;51.312;6.512;2022-08-01T03:21:46;6.13;;;4.00;;
18214;SDS011;9233;51.312;6.512;2022-08-01T03:24:33;10.07;;;4.33;;
18214;SDS011;9233;51.312;6.512;2022-08-01T03:27:22;6.47;;;3.97;;
18214;SDS011;9233;51.312;6.512;2022-08-01T03:30:10;10.07;;;4.70;;
18214;SDS011;9233;51.312;6.512;2022-08-01T03:32:58;7.10;;;5.07;;
18214;SDS011;9233;51.312;6.512;2022-08-01T03:35:46;8.90;;;5.40;;
18214;SDS011;9233;51.312;6.512;2022-08-01T03:38:34;8.17;;;5.30;;
18214;SDS011;9233;51.312;6.512;2022-08-01T03:41:25;10.30;;;5.43;;
18214;SDS011;9233;51.312;6.512;2022-08-01T03:44:14;10.90;;;5.83;;
18214;SDS011;9233;51.312;6.512;2022-08-01T03:47:04;9.97;;;5.73;;
18214;SDS011;9233;51.312;6.512;2022-08-01T03:49:52;9.23;;;5.23;;
18214;SDS011;9233;51.312;6.512;2022-08-01T03:52:40;10.13;;;5.60;;
18214;SDS011;9233;51.312;6.512;2022-08-01T03:55:28;8.40;;;5.73;;
18214;SDS011;9233;51.312;6.512;2022-08-01T03:58:16;8.47;;;5.17;;
18214;SDS011;9233;51.312;6.512;2022-08-01T04:01:04;12.00;;;6.00;;
18214;SDS011;9233;51.312;6.512;2022-08-01T04:03:51;13.03;;;6.20;;
18214;SDS011;9233;51.312;6.512;2022-08-01T04:06:38;12.80;;;6.17;;
18214;SDS011;9233;51.312;6.512;2022-08-01T04:09:25;12.57;;;6.33;;
18214;SDS011;9233;51.312;6.512;2022-08-01T04:12:11;10.73;;;7.10;;
18214;SDS011;9233;51.312;6.512;2022-08-01T04:14:58;10.50;;;6.20;;
18214;SDS011;9233;51.312;6.512;2022-08-01T04:17:46;10.00;;;6.00;;
18214;SDS011;9233;51.312;6.512;2022-08-01T04:20:32;11.40;;;6.93;;
18214;SDS011;9233;51.312;6.512;2022-08-01T04:23:20;9.50;;;5.63;;
18214;SDS011;9233;51.312;6.512;2022-08-01T04:26:09;10.37;;;6.43;;
18214;SDS011;9233;51.312;6.512;2022-08-01T04:28:57;11.27;;;6.83;;
18214;SDS011;9233;51.312;6.512;2022-08-01T04:31:45;9.20;;;6.20;;
18214;SDS011;9233;51.312;6.512;2022-08-01T04:34:34;10.43;;;6.23;;
18214;SDS011;9233;51.312;6.512;2022-08-01T04:37:21;10.47;;;6.90;;
18214;SDS011;9233;51.312;6.512;2022-08-01T04:40:11;9.90;;;6.30;;
18214;SDS011;9233;51.312;6.512;2022-08-01T04:42:57;10.23;;;6.20;;
18214;SDS011;9233;51.312;6.512;2022-08-01T04:45:44;10.60;;;6.33;;
18214;SDS011;9233;51.312;6.512;2022-08-01T04:48:32;10.60;;;6.73;;
18214;SDS011;9233;51.312;6.512;2022-08-01T04:51:20;11.37;;;6.30;;
18214;SDS011;9233;51.312;6.512;2022-08-01T04:54:07;10.30;;;6.60;;
18214;SDS011;9233;51.312;6.512;2022-08-01T04:56:54;10.40;;;6.63;;
18214;SDS011;9233;51.312;6.512;2022-08-01T04:59:44;12.50;;;6.77;;
18214;SDS011;9233;51.312;6.512;2022-08-01T05:02:31;12.63;;;6.80;;
18214;SDS011;9233;51.312;6.512;2022-08-01T05:05:17;9.70;;;6.27;;
18214;SDS011;9233;51.312;6.512;2022-08-01T05:08:07;10.27;;;6.83;;
18214;SDS011;9233;51.312;6.512;2022-08-01T05:10:53;9.13;;;6.13;;
18214;SDS011;9233;51.312;6.512;2022-08-01T05:13:40;12.23;;;7.07;;
18214;SDS011;9233;51.312;6.512;2022-08-01T05:16:26;8.90;;;6.30;;
18214;SDS011;9233;51.312;6.512;2022-08-01T05:19:13;12.10;;;6.80;;
18214;SDS011;9233;51.312;6.512;2022-08-01T05:22:00;9.33;;;6.80;;
18214;SDS011;9233;51.312;6.512;2022-08-01T05:24:50;14.33;;;8.27;;
18214;SDS011;9233;51.312;6.512;2022-08-01T05:27:37;10.50;;;6.30;;
18214;SDS011;9233;51.312;6.512;2022-08-01T05:30:24;8.97;;;6.30;;
18214;SDS011;9233;51.312;6.512;2022-08-01T05:33:11;10.27;;;6.33;;
18214;SDS011;9233;51.312;6.512;2022-08-01T05:35:58;10.50;;;6.87;;
18214;SDS011;9233;51.312;6.512;2022-08-01T05:38:44;11.87;;;6.27;;
18214;SDS011;9233;51.312;6.512;2022-08-01T05:41:32;12.97;;;6.90;;
18214;SDS011;9233;51.312;6.512;2022-08-01T05:44:19;9.53;;;6.60;;
18214;SDS011;9233;51.312;6.512;2022-08-01T05:47:06;11.80;;;6.10;;
18214;SDS011;9233;51.312;6.512;2022-08-01T05:49:52;9.93;;;5.43;;
18214;SDS011;9233;51.312;6.512;2022-08-01T05:52:39;10.10;;;6.63;;
18214;SDS011;9233;51.312;6.512;2022-08-01T05:55:25;9.80;;;6.20;;
18214;SDS011;9233;51.312;6.512;2022-08-01T05:58:13;10.37;;;5.90;;
18214;SDS011;9233;51.312;6.512;2022-08-01T06:01:00;8.60;;;5.80;;
18214;SDS011;9233;51.312;6.512;2022-08-01T06:03:47;9.87;;;5.97;;
18214;SDS011;9233;51.312;6.512;2022-08-01T06:06:33;10.67;;;5.70;;
18214;SDS011;9233;51.312;6.512;2022-08-01T06:09:20;9.07;;;5.60;;
18214;SDS011;9233;51.312;6.512;2022-08-01T06:12:06;11.13;;;6.20;;
18214;SDS011;9233;51.312;6.512;2022-08-01T06:14:54;9.83;;;5.80;;
18214;SDS011;9233;51.312;6.512;2022-08-01T06:17:41;7.97;;;5.00;;
18214;SDS011;9233;51.312;6.512;2022-08-01T06:20:27;8.50;;;5.10;;
18214;SDS011;9233;51.312;6.512;2022-08-01T06:23:14;9.00;;;5.37;;
18214;SDS011;9233;51.312;6.512;2022-08-01T06:26:01;8.03;;;5.50;;
18214;SDS011;9233;51.312;6.512;2022-08-01T06:28:47;7.53;;;4.80;;
18214;SDS011;9233;51.312;6.512;2022-08-01T06:31:35;9.07;;;5.17;;
18214;SDS011;9233;51.312;6.512;2022-08-01T06:34:22;8.97;;;5.17;;
18214;SDS011;9233;51.312;6.512;2022-08-01T06:37:08;6.60;;;4.40;;
18214;SDS011;9233;51.312;6.512;2022-08-01T06:39:59;8.83;;;5.03;;
18214;SDS011;9233;51.312;6.512;2022-08-01T06:42:46;8.27;;;5.67;;
18214;SDS011;9233;51.312;6.512;2022-08-01T06:45:33;6.53;;;4.17;;
18214;SDS011;9233;51.312;6.512;2022-08-01T06:48:22;7.83;;;4.23;;
18214;SDS011;9233;51.312;6.512;2022-08-01T06:51:09;7.40;;;4.50;;
18214;SDS011;9233;51.312;6.512;2022-08-01T06:53:58;5.20;;;4.00;;
18214;SDS011;9233;51.312;6.512;2022-08-01T06:56:45;7.47;;;3.87;;
18214;SDS011;9233;51.312;6.512;2022-08-01T06:59:31;6.40;;;3.67;;
18214;SDS011;9233;51.312;6.512;2022-08-01T07:02:18;4.03;;;2.97;;
18214;SDS011;9233;51.312;6.512;2022-08-01T07:05:06;5.13;;;2.63;;
18214;SDS011;9233;51.312;6.512;2022-08-01T07:07:54;3.77;;;2.77;;
18214;SDS011;9233;51.312;6.512;2022-08-01T07:10:40;4.40;;;2.93;;
18214;SDS011;9233;51.312;6.512;2022-08-01T07:13:28;5.57;;;3.60;;
18214;SDS011;9233;51.312;6.512;2022-08-01T07:16:16;5.10;;;3.23;;
18214;SDS011;9233;51.312;6.512;2022-08-01T07:19:03;2.90;;;2.47;;
18214;SDS011;9233;51.312;6.512;2022-08-01T07:21:50;4.73;;;3.20;;
18214;SDS011;9233;51.312;6.512;2022-08-01T07:24:37;3.50;;;2.50;;
18214;SDS011;9233;51.312;6.512;2022-08-01T07:27:24;3.77;;;2.20;;
18214;SDS011;9233;51.312;6.512;2022-08-01T07:30:10;3.27;;;2.13;;
18214;SDS011;9233;51.312;6.512;2022-08-01T07:32:57;2.73;;;2.00;;
18214;SDS011;9233;51.312;6.512;2022-08-01T07:35:44;3.17;;;2.10;;
18214;SDS011;9233;51.312;6.512;2022-08-01T07:38:32;4.00;;;2.30;;
18214;SDS011;9233;51.312;6.512;2022-08-01T07:41:19;3.97;;;2.77;;
18214;SDS011;9233;51.312;6.512;2022-08-01T07:44:06;3.67;;;2.40;;
18214;SDS011;9233;51.312;6.512;2022-08-01T07:46:52;3.70;;;2.37;;
18214;SDS011;9233;51.312;6.512;2022-08-01T07:49:39;5.63;;;2.77;;
18214;SDS011;9233;51.312;6.512;2022-08-01T07:52:25;4.77;;;2.97;;
18214;SDS011;9233;51.312;6.512;2022-08-01T07:55:13;5.23;;;3.67;;
18214;SDS011;9233;51.312;6.512;2022-08-01T07:58:00;4.70;;;2.93;;
18214;SDS011;9233;51.312;6.512;2022-08-01T08:00:47;6.10;;;3.00;;
18214;SDS011;9233;51.312;6.512;2022-08-01T08:03:33;6.00;;;3.10;;
18214;SDS011;9233;51.312;6.512;2022-08-01T08:06:20;5.50;;;3.30;;
18214;SDS011;9233;51.312;6.512;2022-08-01T08:09:07;3.27;;;2.47;;
18214;SDS011;9233;51.312;6.512;2022-08-01T08:11:55;4.70;;;3.17;;
18214;SDS011;9233;51.312;6.512;2022-08-01T08:14:42;3.30;;;2.60;;
18214;SDS011;9233;51.312;6.512;2022-08-01T08:17:29;5.50;;;2.70;;
18214;SDS011;9233;51.312;6.512;2022-08-01T08:20:16;4.33;;;2.83;;
18214;SDS011;9233;51.312;6.512;2022-08-01T08:23:03;5.93;;;3.30;;
18214;SDS011;9233;51.312;6.512;2022-08-01T08:26:10;2.73;;;2.23;;
18214;SDS011;9233;51.312;6.512;2022-08-01T08:28:58;2.80;;;1.90;;
18214;SDS011;9233;51.312;6.512;2022-08-01T08:31:45;2.97;;;2.10;;
18214;SDS011;9233;51.312;6.512;2022-08-01T08:34:32;4.23;;;2.87;;
18214;SDS011;9233;51.312;6.512;2022-08-01T08:37:19;3.87;;;2.60;;
18214;SDS011;9233;51.312;6.512;2022-08-01T08:40:06;4.50;;;3.10;;
18214;SDS011;9233;51.312;6.512;2022-08-01T08:42:53;4.53;;;2.90;;
18214;SDS011;9233;51.312;6.512;2022-08-01T08:45:41;3.27;;;2.53;;
18214;SDS011;9233;51.312;6.512;2022-08-01T08:48:29;3.47;;;2.30;;
18214;SDS011;9233;51.312;6.512;2022-08-01T08:51:16;5.27;;;2.77;;
18214;SDS011;9233;51.312;6.512;2022-08-01T08:54:04;5.63;;;2.70;;
18214;SDS011;9233;51.312;6.512;2022-08-01T08:56:52;4.30;;;2.67;;
18214;SDS011;9233;51.312;6.512;2022-08-01T08:59:39;3.37;;;2.47;;
18214;SDS011;9233;51.312;6.512;2022-08-01T09:02:27;4.13;;;2.33;;
18214;SDS011;9233;51.312;6.512;2022-08-01T09:05:14;4.60;;;2.60;;
18214;SDS011;9233;51.312;6.512;2022-08-01T09:08:02;2.97;;;2.23;;
18214;SDS011;9233;51.312;6.512;2022-08-01T09:10:52;3.73;;;2.20;;
18214;SDS011;9233;51.312;6.512;2022-08-01T09:13:39;3.30;;;2.20;;
18214;SDS011;9233;51.312;6.512;2022-08-01T09:16:25;3.03;;;2.00;;
18214;SDS011;9233;51.312;6.512;2022-08-01T09:19:14;5.37;;;1.90;;
18214;SDS011;9233;51.312;6.512;2022-08-01T09:22:03;3.53;;;1.87;;
18214;SDS011;9233;51.312;6.512;2022-08-01T09:24:57;2.03;;;1.77;;
18214;SDS011;9233;51.312;6.512;2022-08-01T09:27:45;3.00;;;2.17;;
18214;SDS011;9233;51.312;6.512;2022-08-01T09:30:36;2.47;;;1.80;;
18214;SDS011;9233;51.312;6.512;2022-08-01T09:33:24;2.80;;;1.60;;
18214;SDS011;9233;51.312;6.512;2022-08-01T09:36:13;2.53;;;2.00;;
18214;SDS011;9233;51.312;6.512;2022-08-01T09:39:04;3.00;;;1.83;;
18214;SDS011;9233;51.312;6.512;2022-08-01T09:41:59;3.30;;;1.80;;
18214;SDS011;9233;51.312;6.512;2022-08-01T09:44:47;3.73;;;1.90;;
18214;SDS011;9233;51.312;6.512;2022-08-01T09:47:37;3.97;;;2.23;;
18214;SDS011;9233;51.312;6.512;2022-08-01T09:50:24;2.27;;;2.07;;
18214;SDS011;9233;51.312;6.512;2022-08-01T09:53:26;2.97;;;2.40;;
18214;SDS011;9233;51.312;6.512;2022-08-01T09:56:12;2.67;;;2.03;;
18214;SDS011;9233;51.312;6.512;2022-08-01T09:59:00;2.73;;;1.73;;
18214;SDS011;9233;51.312;6.512;2022-08-01T10:01:47;2.63;;;1.80;;
18214;SDS011;9233;51.312;6.512;2022-08-01T10:04:34;5.23;;;1.53;;
18214;SDS011;9233;51.312;6.512;2022-08-01T10:07:21;2.33;;;1.70;;
18214;SDS011;9233;51.312;6.512;2022-08-01T10:10:10;2.43;;;1.70;;
18214;SDS011;9233;51.312;6.512;2022-08-01T10:12:59;2.20;;;1.63;;
18214;SDS011;9233;51.312;6.512;2022-08-01T10:15:45;2.27;;;1.60;;
18214;SDS011;9233;51.312;6.512;2022-08-01T10:18:33;1.57;;;1.40;;
18214;SDS011;9233;51.312;6.512;2022-08-01T10:21:21;1.87;;;1.50;;
18214;SDS011;9233;51.312;6.512;2022-08-01T10:24:10;2.37;;;1.70;;
18214;SDS011;9233;51.312;6.512;2022-08-01T10:26:59;1.80;;;1.30;;
18214;SDS011;9233;51.312;6.512;2022-08-01T10:29:50;3.40;;;1.53;;
18214;SDS011;9233;51.312;6.512;2022-08-01T10:32:38;1.73;;;1.60;;
18214;SDS011;9233;51.312;6.512;2022-08-01T10:35:27;1.97;;;1.50;;
18214;SDS011;9233;51.312;6.512;2022-08-01T10:38:14;1.47;;;1.33;;
18214;SDS011;9233;51.312;6.512;2022-08-01T10:41:02;2.87;;;1.70;;
18214;SDS011;9233;51.312;6.512;2022-08-01T10:43:50;1.97;;;1.53;;
18214;SDS011;9233;51.312;6.512;2022-08-01T10:46:38;4.10;;;1.87;;
18214;SDS011;9233;51.312;6.512;2022-08-01T10:49:26;2.23;;;1.70;;
18214;SDS011;9233;51.312;6.512;2022-08-01T10:52:14;1.50;;;1.40;;
18214;SDS011;9233;51.312;6.512;2022-08-01T10:55:02;1.73;;;1.10;;
18214;SDS011;9233;51.312;6.512;2022-08-01T10:57:49;1.53;;;1.10;;
18214;SDS011;9233;51.312;6.512;2022-08-01T11:00:37;1.63;;;1.27;;
18214;SDS011;9233;51.312;6.512;2022-08-01T11:03:31;1.77;;;1.20;;
18214;SDS011;9233;51.312;6.512;2022-08-01T11:06:19;1.40;;;1.20;;
18214;SDS011;9233;51.312;6.512;2022-08-01T11:09:15;1.20;;;1.10;;
18214;SDS011;9233;51.312;6.512;2022-08-01T11:12:09;1.13;;;1.03;;
18214;SDS011;9233;51.312;6.512;2022-08-01T11:21:18;1.20;;;1.10;;
18214;SDS011;9233;51.312;6.512;2022-08-01T11:24:05;1.07;;;0.97;;
18214;SDS011;9233;51.312;6.512;2022-08-01T11:30:21;1.10;;;0.90;;
18214;SDS011;9233;51.312;6.512;2022-08-01T11:33:10;1.63;;;1.00;;
18214;SDS011;9233;51.312;6.512;2022-08-01T11:36:18;1.10;;;0.90;;
18214;SDS011;9233;51.312;6.512;2022-08-01T11:39:13;1.50;;;0.97;;
18214;SDS011;9233;51.312;6.512;2022-08-01T11:45:06;1.40;;;1.30;;
18214;SDS011;9233;51.312;6.512;2022-08-01T11:47:54;1.00;;;0.80;;
18214;SDS011;9233;51.312;6.512;2022-08-01T11:50:41;1.30;;;1.20;;
18214;SDS011;9233;51.312;6.512;2022-08-01T11:53:29;2.03;;;1.20;;
18214;SDS011;9233;51.312;6.512;2022-08-01T11:56:15;2.00;;;1.43;;
18214;SDS011;9233;51.312;6.512;2022-08-01T11:59:02;1.07;;;1.00;;
18214;SDS011;9233;51.312;6.512;2022-08-01T12:01:49;1.43;;;1.33;;
18214;SDS011;9233;51.312;6.512;2022-08-01T12:07:49;1.20;;;1.10;;
18214;SDS011;9233;51.312;6.512;2022-08-01T12:10:37;1.97;;;1.27;;
18214;SDS011;9233;51.312;6.512;2022-08-01T12:13:24;2.60;;;1.30;;
18214;SDS011;9233;51.312;6.512;2022-08-01T12:16:10;1.40;;;1.30;;
18214;SDS011;9233;51.312;6.512;2022-08-01T12:18:57;2.97;;;1.30;;
18214;SDS011;9233;51.312;6.512;2022-08-01T12:21:44;1.23;;;1.00;;
18214;SDS011;9233;51.312;6.512;2022-08-01T12:24:30;1.37;;;1.10;;
18214;SDS011;9233;51.312;6.512;2022-08-01T12:27:28;1.00;;;0.93;;
18214;SDS011;9233;51.312;6.512;2022-08-01T12:30:17;1.13;;;1.03;;
18214;SDS011;9233;51.312;6.512;2022-08-01T12:33:05;1.10;;;1.00;;
18214;SDS011;9233;51.312;6.512;2022-08-01T12:35:53;1.23;;;1.13;;
18214;SDS011;9233;51.312;6.512;2022-08-01T12:38:39;1.70;;;0.93;;
18214;SDS011;9233;51.312;6.512;2022-08-01T12:41:26;0.90;;;0.90;;
18214;SDS011;9233;51.312;6.512;2022-08-01T12:44:14;1.23;;;1.10;;
18214;SDS011;9233;51.312;6.512;2022-08-01T12:47:01;1.03;;;0.90;;
18214;SDS011;9233;51.312;6.512;2022-08-01T12:49:48;1.17;;;1.07;;
18214;SDS011;9233;51.312;6.512;2022-08-01T12:52:35;0.80;;;0.80;;
18214;SDS011;9233;51.312;6.512;2022-08-01T12:55:23;2.40;;;0.80;;
18214;SDS011;9233;51.312;6.512;2022-08-01T12:58:11;1.13;;;0.90;;
18214;SDS011;9233;51.312;6.512;2022-08-01T13:01:03;1.30;;;0.80;;
18214;SDS011;9233;51.312;6.512;2022-08-01T13:04:00;1.20;;;1.10;;
18214;SDS011;9233;51.312;6.512;2022-08-01T13:06:52;0.67;;;0.67;;
18214;SDS011;9233;51.312;6.512;2022-08-01T13:09:48;1.70;;;1.07;;
18214;SDS011;9233;51.312;6.512;2022-08-01T13:12:35;1.60;;;0.90;;
18214;SDS011;9233;51.312;6.512;2022-08-01T13:15:26;1.17;;;1.00;;
18214;SDS011;9233;51.312;6.512;2022-08-01T13:18:23;0.90;;;0.83;;
18214;SDS011;9233;51.312;6.512;2022-08-01T13:21:12;0.60;;;0.60;;
18214;SDS011;9233;51.312;6.512;2022-08-01T13:24:00;1.17;;;0.70;;
18214;SDS011;9233;51.312;6.512;2022-08-01T13:26:49;2.53;;;0.90;;
18214;SDS011;9233;51.312;6.512;2022-08-01T13:29:37;2.70;;;1.00;;
18214;SDS011;9233;51.312;6.512;2022-08-01T13:32:26;0.63;;;0.63;;
18214;SDS011;9233;51.312;6.512;2022-08-01T13:35:14;0.90;;;0.80;;
18214;SDS011;9233;51.312;6.512;2022-08-01T13:38:07;1.13;;;0.70;;
18214;SDS011;9233;51.312;6.512;2022-08-01T13:40:57;1.00;;;0.60;;
18214;SDS011;9233;51.312;6.512;2022-08-01T13:43:45;2.00;;;0.80;;
18214;SDS011;9233;51.312;6.512;2022-08-01T13:46:31;2.23;;;0.90;;
18214;SDS011;9233;51.312;6.512;2022-08-01T13:49:19;0.80;;;0.80;;
18214;SDS011;9233;51.312;6.512;2022-08-01T13:52:07;1.40;;;0.70;;
18214;SDS011;9233;51.312;6.512;2022-08-01T13:54:54;0.80;;;0.73;;
18214;SDS011;9233;51.312;6.512;2022-08-01T13:57:40;1.27;;;0.70;;
18214;SDS011;9233;51.312;6.512;2022-08-01T14:00:27;0.90;;;0.73;;
18214;SDS011;9233;51.312;6.512;2022-08-01T14:03:13;1.43;;;0.80;;
18214;SDS011;9233;51.312;6.512;2022-08-01T14:06:01;1.30;;;0.83;;
18214;SDS011;9233;51.312;6.512;2022-08-01T14:08:50;1.93;;;1.00;;
18214;SDS011;9233;51.312;6.512;2022-08-01T14:11:36;1.13;;;0.80;;
18214;SDS011;9233;51.312;6.512;2022-08-01T14:14:23;1.13;;;0.90;;
18214;SDS011;9233;51.312;6.512;2022-08-01T14:17:09;1.20;;;1.00;;
18214;SDS011;9233;51.312;6.512;2022-08-01T14:19:56;1.53;;;1.00;;
18214;SDS011;9233;51.312;6.512;2022-08-01T14:22:44;1.03;;;0.90;;
18214;SDS011;9233;51.312;6.512;2022-08-01T14:25:32;1.10;;;0.80;;
18214;SDS011;9233;51.312;6.512;2022-08-01T14:28:19;2.10;;;0.90;;
18214;SDS011;9233;51.312;6.512;2022-08-01T14:31:06;1.67;;;1.03;;
18214;SDS011;9233;51.312;6.512;2022-08-01T14:33:52;2.77;;;2.43;;
18214;SDS011;9233;51.312;6.512;2022-08-01T14:36:39;8.37;;;6.70;;
18214;SDS011;9233;51.312;6.512;2022-08-01T14:39:26;2.33;;;2.10;;
18214;SDS011;9233;51.312;6.512;2022-08-01T14:42:14;2.90;;;1.63;;
18214;SDS011;9233;51.312;6.512;2022-08-01T14:45:01;2.87;;;1.30;;
18214;SDS011;9233;51.312;6.512;2022-08-01T14:47:48;1.40;;;1.27;;
18214;SDS011;9233;51.312;6.512;2022-08-01T14:50:34;1.47;;;0.80;;
18214;SDS011;9233;51.312;6.512;2022-08-01T14:53:21;1.83;;;1.00;;
18214;SDS011;9233;51.312;6.512;2022-08-01T14:56:08;3.13;;;1.00;;
18214;SDS011;9233;51.312;6.512;2022-08-01T14:58:56;3.70;;;0.87;;
18214;SDS011;9233;51.312;6.512;2022-08-01T15:01:42;1.20;;;0.70;;
18214;SDS011;9233;51.312;6.512;2022-08-01T15:04:29;2.47;;;1.17;;
18214;SDS011;9233;51.312;6.512;2022-08-01T15:07:17;2.80;;;0.80;;
18214;SDS011;9233;51.312;6.512;2022-08-01T15:10:04;1.10;;;0.87;;
18214;SDS011;9233;51.312;6.512;2022-08-01T15:12:51;2.70;;;1.47;;
18214;SDS011;9233;51.312;6.512;2022-08-01T15:15:39;1.37;;;1.07;;
18214;SDS011;9233;51.312;6.512;2022-08-01T15:18:26;4.00;;;2.07;;
18214;SDS011;9233;51.312;6.512;2022-08-01T15:21:12;5.23;;;2.40;;
18214;SDS011;9233;51.312;6.512;2022-08-01T15:23:59;2.07;;;1.50;;
18214;SDS011;9233;51.312;6.512;2022-08-01T15:26:45;1.50;;;1.20;;
18214;SDS011;9233;51.312;6.512;2022-08-01T15:29:32;1.77;;;1.30;;
18214;SDS011;9233;51.312;6.512;2022-08-01T15:32:20;3.53;;;1.43;;
18214;SDS011;9233;51.312;6.512;2022-08-01T15:35:07;1.00;;;0.90;;
18214;SDS011;9233;51.312;6.512;2022-08-01T15:37:55;1.33;;;0.80;;
18214;SDS011;9233;51.312;6.512;2022-08-01T15:40:42;1.23;;;0.83;;
18214;SDS011;9233;51.312;6.512;2022-08-01T15:43:28;0.87;;;0.80;;
18214;SDS011;9233;51.312;6.512;2022-08-01T15:46:15;1.93;;;0.73;;
18214;SDS011;9233;51.312;6.512;2022-08-01T15:49:03;0.83;;;0.70;;
18214;SDS011;9233;51.312;6.512;2022-08-01T15:51:50;2.30;;;0.70;;
18214;SDS011;9233;51.312;6.512;2022-08-01T15:54:37;2.23;;;0.90;;
18214;SDS011;9233;51.312;6.512;2022-08-01T15:57:25;0.90;;;0.60;;
18214;SDS011;9233;51.312;6.512;2022-08-01T16:00:12;1.60;;;0.80;;
18214;SDS011;9233;51.312;6.512;2022-08-01T16:03:00;3.67;;;0.90;;
18214;SDS011;9233;51.312;6.512;2022-08-01T16:05:48;1.87;;;1.00;;
18214;SDS011;9233;51.312;6.512;2022-08-01T16:08:38;2.10;;;0.87;;
18214;SDS011;9233;51.312;6.512;2022-08-01T16:11:25;2.40;;;0.90;;
18214;SDS011;9233;51.312;6.512;2022-08-01T16:14:12;2.33;;;0.70;;
18214;SDS011;9233;51.312;6.512;2022-08-01T16:16:58;1.37;;;0.70;;
18214;SDS011;9233;51.312;6.512;2022-08-01T16:19:45;0.83;;;0.67;;
18214;SDS011;9233;51.312;6.512;2022-08-01T16:22:33;0.70;;;0.70;;
18214;SDS011;9233;51.312;6.512;2022-08-01T16:25:30;0.50;;;0.50;;
18214;SDS011;9233;51.312;6.512;2022-08-01T16:28:38;0.80;;;0.70;;
18214;SDS011;9233;51.312;6.512;2022-08-01T16:31:29;1.53;;;0.70;;
18214;SDS011;9233;51.312;6.512;2022-08-01T16:34:16;1.37;;;1.00;;
18214;SDS011;9233;51.312;6.512;2022-08-01T16:37:08;0.60;;;0.60;;
18214;SDS011;9233;51.312;6.512;2022-08-01T16:39:58;1.07;;;0.67;;
18214;SDS011;9233;51.312;6.512;2022-08-01T16:42:44;2.70;;;0.70;;
18214;SDS011;9233;51.312;6.512;2022-08-01T16:45:41;2.40;;;0.80;;
18214;SDS011;9233;51.312;6.512;2022-08-01T16:48:31;2.70;;;0.70;;
18214;SDS011;9233;51.312;6.512;2022-08-01T16:51:50;1.07;;;0.63;;
18214;SDS011;9233;51.312;6.512;2022-08-01T16:54:37;1.87;;;1.40;;
18214;SDS011;9233;51.312;6.512;2022-08-01T16:57:25;2.27;;;1.30;;
18214;SDS011;9233;51.312;6.512;2022-08-01T17:00:13;2.03;;;1.13;;
18214;SDS011;9233;51.312;6.512;2022-08-01T17:03:00;0.70;;;0.70;;
18214;SDS011;9233;51.312;6.512;2022-08-01T17:05:47;1.63;;;0.80;;
18214;SDS011;9233;51.312;6.512;2022-08-01T17:08:34;0.93;;;0.73;;
18214;SDS011;9233;51.312;6.512;2022-08-01T17:11:21;1.13;;;0.93;;
18214;SDS011;9233;51.312;6.512;2022-08-01T17:14:09;0.90;;;0.80;;
18214;SDS011;9233;51.312;6.512;2022-08-01T17:16:56;1.00;;;0.80;;
18214;SDS011;9233;51.312;6.512;2022-08-01T17:19:43;1.37;;;1.20;;
18214;SDS011;9233;51.312;6.512;2022-08-01T17:22:44;1.27;;;0.67;;
18214;SDS011;9233;51.312;6.512;2022-08-01T17:25:31;1.63;;;0.80;;